Pagrindinis puslapis
METAR-TAF:

METAR-TAF

Oro uostai :

Tirana, Albanija

platuma: 41-20N, ilguma: 019-47E, Aukštis: 89 m

Dabartinis oras

Ataskaita buvo paskelbta 36 minutes, ne 21:20 UTC
Vėjas 3 kt iš Pietryčių
Temperatūra 8°C
Drėgmė 87%
Slėgis 1020 hPa
Matomumas 10 km arba daugiau
nėra debesų žemiau 1500 m ir nėra kamuolinių lietaus debesų

METAR: LATI 092120Z 14003KT CAVOK 08/06 Q1020 NOSIG

Laikas: 23:56 (21:56 UTC)

Prognozė

Ataskaita buvo paskelbta 4 valandos ir 56 minutes, ne 17:00 UTC
Prognozė galioja nuo 09 metu 18 UTC su 10 metu 18 UTC
Vėjas 4 kt nuo kintamojo kryptimis
Matomumas 10 km arba daugiau
nėra debesų žemiau 1500 m ir nėra kamuolinių lietaus debesų
Laikinai
nuo 10 metu 11 UTC su 10 metu 17 UTC
Vėjas 10 kt iš Šiaurės/Šiaurės Vakarų

TAF: LATI 091700Z 0918/1018 VRB04KT CAVOK TEMPO 1011/1017 34010KT

Orai ataskaitas ir orų prognozės (METAR, TAF).

turimą stotys yra geltonos ir raudonos taškus žemėlapyje.

Perkelti pele per norėdami pamatyti stoties vardą.

Tada spustelėkite, norėdami matyti oro stebėjimo ir prognozės.

Norėdami pakeisti žemėlapį: spustelėkite ant žalios mygtukų su juodo kryžiaus žemyn,; žalią mygtuką su brūkšneliu, jei norite nutolinti; arba žalių rodyklių gretimoms žemėlapius.


METAR-TAF: